Time;durP1;ratioP1;P1;durP2;ratioP2;P2;SDS_P1;SDS_P2;PMS_P1;PMS_P2;Temp;Humidity;BMP_temperature;BMP_pressure;BME280_temperature;BME280_humidity;BME280_pressure;Samples;Min_cycle;Max_cycle;Signal;HPM_P1;HPM_P2
2023/05/16 00:01:22;;;;;;;11.60;8.00;;;13.70;99.90;;;;;;5024941;28;20211;-68
2023/05/16 00:03:47;;;;;;;10.20;7.33;;;13.70;99.90;;;;;;5025357;28;20164;-68
2023/05/16 00:06:14;;;;;;;9.07;8.13;;;13.70;99.90;;;;;;5023886;28;20490;-68
2023/05/16 00:08:40;;;;;;;7.73;7.13;;;13.80;99.90;;;;;;5024043;28;20206;-69
2023/05/16 00:11:06;;;;;;;9.10;8.27;;;13.80;99.90;;;;;;5025413;28;20508;-67
2023/05/16 00:13:32;;;;;;;8.50;7.40;;;13.80;99.90;;;;;;5024198;28;20410;-69
2023/05/16 00:16:01;;;;;;;8.30;7.50;;;13.80;99.90;;;;;;5025146;28;20418;-68
2023/05/16 00:18:27;;;;;;;8.50;7.80;;;13.80;99.90;;;;;;5024440;28;20855;-67
2023/05/16 00:20:53;;;;;;;8.57;7.50;;;13.80;99.90;;;;;;5025312;28;20406;-67
2023/05/16 00:23:19;;;;;;;9.83;7.80;;;13.80;99.90;;;;;;5024144;28;20508;-68
2023/05/16 00:25:46;;;;;;;9.00;8.10;;;13.70;99.90;;;;;;5024087;28;20916;-68
2023/05/16 00:28:11;;;;;;;7.37;6.67;;;13.70;99.90;;;;;;5024775;28;20816;-70
2023/05/16 00:30:37;;;;;;;14.83;8.03;;;13.70;99.90;;;;;;5023811;28;20418;-67
2023/05/16 00:33:02;;;;;;;10.33;8.43;;;13.70;99.90;;;;;;5025299;28;20180;-67
2023/05/16 00:35:28;;;;;;;8.27;7.33;;;13.60;99.90;;;;;;5024112;28;20538;-69
2023/05/16 00:37:53;;;;;;;13.00;9.63;;;13.60;99.90;;;;;;5022221;28;20203;-67
2023/05/16 00:40:20;;;;;;;10.67;9.13;;;13.60;99.90;;;;;;5028181;28;20577;-67
2023/05/16 00:42:45;;;;;;;9.53;8.70;;;13.50;99.90;;;;;;5021507;28;20173;-68
2023/05/16 00:45:11;;;;;;;10.17;8.60;;;13.50;99.90;;;;;;5028788;28;20934;-68
2023/05/16 00:47:37;;;;;;;10.43;9.40;;;13.50;99.90;;;;;;5019902;28;20192;-68
2023/05/16 00:50:03;;;;;;;10.50;9.47;;;13.50;99.90;;;;;;5019768;28;20179;-67
2023/05/16 00:52:29;;;;;;;10.33;9.33;;;13.50;99.90;;;;;;5021429;28;20184;-67
2023/05/16 00:54:56;;;;;;;10.97;9.97;;;13.40;99.90;;;;;;5021749;28;20415;-68
2023/05/16 00:57:22;;;;;;;9.33;8.50;;;13.40;99.90;;;;;;5027670;28;20461;-67
2023/05/16 00:59:48;;;;;;;9.90;8.90;;;13.30;99.90;;;;;;5021179;28;20494;-69
2023/05/16 01:02:13;;;;;;;12.60;10.30;;;13.30;99.90;;;;;;5028555;28;20567;-68
2023/05/16 01:04:40;;;;;;;11.40;10.23;;;13.40;99.90;;;;;;5021262;28;20174;-68
2023/05/16 01:07:05;;;;;;;11.83;10.60;;;13.30;99.90;;;;;;5020913;28;20665;-69
2023/05/16 01:09:31;;;;;;;13.73;11.40;;;13.20;99.90;;;;;;5027179;28;20403;-69
2023/05/16 01:12:19;;;;;;;13.27;11.17;;;13.20;99.90;;;;;;5021076;28;20172;-68
2023/05/16 01:15:07;;;;;;;12.63;11.43;;;13.10;99.90;;;;;;5015166;28;20344;-68
2023/05/16 01:17:50;;;;;;;15.73;12.60;;;13.10;99.90;;;;;;5023726;28;20454;-68
2023/05/16 01:20:35;;;;;;;15.80;12.77;;;13.00;99.90;;;;;;5023802;28;20794;-68
2023/05/16 01:23:16;;;;;;;14.80;13.20;;;12.90;99.90;;;;;;5024273;28;20417;-68
2023/05/16 01:25:51;;;;;;;14.87;13.27;;;12.90;99.90;;;;;;5015756;28;20406;-68
2023/05/16 01:28:17;;;;;;;14.23;12.63;;;12.90;99.90;;;;;;5023157;28;20457;-68
2023/05/16 01:30:43;;;;;;;21.80;12.43;;;12.90;99.90;;;;;;5023685;28;20917;-68
2023/05/16 01:33:09;;;;;;;14.43;12.70;;;12.90;99.90;;;;;;5024270;28;20421;-68
2023/05/16 01:35:42;;;;;;;18.20;12.77;;;12.90;99.90;;;;;;5023456;28;20992;-68
2023/05/16 01:38:23;;;;;;;14.13;12.73;;;12.90;99.90;;;;;;5017985;28;20208;-68
2023/05/16 01:41:20;;;;;;;17.87;12.20;;;12.90;99.90;;;;;;5015981;28;20403;-69
2023/05/16 01:43:48;;;;;;;15.03;13.57;;;12.80;99.90;;;;;;5015145;28;20469;-68
2023/05/16 01:46:20;;;;;;;16.87;14.20;;;12.80;99.90;;;;;;5042686;28;20835;-69
2023/05/16 01:49:15;;;;;;;12.97;11.50;;;12.70;99.90;;;;;;5026111;28;20431;-68
2023/05/16 01:51:47;;;;;;;15.00;13.50;;;12.60;99.90;;;;;;5012244;28;20422;-68
2023/05/16 01:54:16;;;;;;;12.47;11.17;;;12.60;99.90;;;;;;5024998;28;20906;-68
2023/05/16 01:56:50;;;;;;;13.30;11.97;;;12.50;99.90;;;;;;5024182;28;20848;-68
2023/05/16 01:59:16;;;;;;;13.70;12.33;;;12.40;99.90;;;;;;5022764;28;20881;-68
2023/05/16 02:01:42;;;;;;;17.83;12.90;;;12.50;99.90;;;;;;5024530;28;20993;-68
2023/05/16 02:04:08;;;;;;;13.33;11.93;;;12.40;99.90;;;;;;5024090;28;20469;-68
2023/05/16 02:06:34;;;;;;;14.20;12.80;;;12.30;99.90;;;;;;5021128;28;20179;-68
2023/05/16 02:08:59;;;;;;;20.40;12.93;;;12.30;99.90;;;;;;5025362;28;20434;-68
2023/05/16 02:11:25;;;;;;;14.20;12.50;;;12.20;99.90;;;;;;5021431;28;20182;-68
2023/05/16 02:13:51;;;;;;;13.97;12.50;;;12.20;99.90;;;;;;5024271;28;20175;-68
2023/05/16 02:16:16;;;;;;;13.00;10.93;;;12.10;99.90;;;;;;5022893;28;20202;-69
2023/05/16 02:18:43;;;;;;;14.77;11.83;;;12.10;99.90;;;;;;5023252;28;20231;-69
2023/05/16 02:21:09;;;;;;;14.23;11.90;;;12.10;99.90;;;;;;5023531;28;20175;-68
2023/05/16 02:23:35;;;;;;;17.83;14.40;;;12.10;99.90;;;;;;5019805;28;20426;-70
2023/05/16 02:26:00;;;;;;;13.50;11.20;;;12.10;99.90;;;;;;5024482;28;20374;-67
2023/05/16 02:28:26;;;;;;;14.80;12.57;;;12.00;99.90;;;;;;5020627;28;20222;-68
2023/05/16 02:30:56;;;;;;;15.47;13.07;;;11.90;99.90;;;;;;5024251;28;20191;-68
2023/05/16 02:33:22;;;;;;;15.17;12.47;;;11.80;99.90;;;;;;5021744;28;20221;-67
2023/05/16 02:35:47;;;;;;;16.90;11.60;;;11.70;99.90;;;;;;5022552;28;20423;-68
2023/05/16 02:38:16;;;;;;;12.83;11.47;;;11.70;99.90;;;;;;5019865;28;20208;-69
2023/05/16 02:40:42;;;;;;;16.80;12.07;;;11.70;99.90;;;;;;5025660;28;20172;-68
2023/05/16 02:43:07;;;;;;;15.50;13.23;;;11.70;99.90;;;;;;5015999;28;20410;-69
2023/05/16 02:45:33;;;;;;;16.30;12.20;;;11.60;99.90;;;;;;5027241;28;20172;-69
2023/05/16 02:47:58;;;;;;;13.70;11.87;;;11.60;99.90;;;;;;5019635;28;20196;-68
2023/05/16 02:50:24;;;;;;;13.83;12.43;;;11.60;99.90;;;;;;5021702;28;20176;-68
2023/05/16 02:52:50;;;;;;;15.27;12.20;;;11.60;99.90;;;;;;5023916;28;20211;-69
2023/05/16 02:55:15;;;;;;;19.10;12.53;;;11.60;99.90;;;;;;5013531;28;20263;-69
2023/05/16 02:57:41;;;;;;;12.83;11.30;;;11.60;99.90;;;;;;5023828;28;20191;-69
2023/05/16 03:00:09;;;;;;;13.80;12.17;;;11.60;99.90;;;;;;5019415;28;20179;-70
2023/05/16 03:02:35;;;;;;;17.13;12.00;;;11.60;99.90;;;;;;5026719;28;20171;-68
2023/05/16 03:05:00;;;;;;;14.53;13.03;;;11.60;99.90;;;;;;5022861;28;20540;-68
2023/05/16 03:07:26;;;;;;;15.20;12.20;;;11.60;99.90;;;;;;5020880;28;20242;-69
2023/05/16 03:09:51;;;;;;;14.70;12.93;;;11.60;99.90;;;;;;5023707;28;20257;-68
2023/05/16 03:12:17;;;;;;;14.30;11.00;;;11.60;99.90;;;;;;5025658;28;20179;-68
2023/05/16 03:14:42;;;;;;;15.03;11.90;;;11.60;99.90;;;;;;5027340;28;20646;-68
2023/05/16 03:17:08;;;;;;;14.80;12.07;;;11.60;99.90;;;;;;5028086;28;20186;-69
2023/05/16 03:19:34;;;;;;;13.63;11.50;;;11.60;99.90;;;;;;5025761;28;20175;-69
2023/05/16 03:21:59;;;;;;;13.87;12.50;;;11.70;99.90;;;;;;5026495;28;20172;-68
2023/05/16 03:24:25;;;;;;;15.93;12.30;;;11.60;99.90;;;;;;5024759;28;20172;-67
2023/05/16 03:26:51;;;;;;;14.73;12.40;;;11.60;99.90;;;;;;5026416;28;20175;-68
2023/05/16 03:29:16;;;;;;;19.87;14.20;;;11.60;99.90;;;;;;5025645;28;20298;-68
2023/05/16 03:31:42;;;;;;;14.83;13.33;;;11.50;99.90;;;;;;5026481;28;20203;-68
2023/05/16 03:34:07;;;;;;;14.00;12.53;;;11.40;99.90;;;;;;5026347;28;20175;-68
2023/05/16 03:36:34;;;;;;;18.43;14.00;;;11.50;99.90;;;;;;5024322;28;20246;-68
2023/05/16 03:39:00;;;;;;;14.27;12.23;;;11.50;99.90;;;;;;5026069;28;20203;-68
2023/05/16 03:41:26;;;;;;;16.70;14.77;;;11.50;99.90;;;;;;5025091;28;20403;-69
2023/05/16 03:43:51;;;;;;;15.37;13.27;;;11.50;99.90;;;;;;5020907;28;20176;-67
2023/05/16 03:46:17;;;;;;;15.90;13.53;;;11.50;99.90;;;;;;5017556;28;20200;-68
2023/05/16 03:48:43;;;;;;;17.50;13.50;;;11.40;99.90;;;;;;5026255;28;20206;-68
2023/05/16 03:51:08;;;;;;;14.53;12.47;;;11.50;99.90;;;;;;5026151;28;20912;-68
2023/05/16 03:53:34;;;;;;;17.30;13.40;;;11.50;99.90;;;;;;5024404;28;20176;-68
2023/05/16 03:56:00;;;;;;;18.20;14.30;;;11.50;99.90;;;;;;5026010;28;20588;-66
2023/05/16 03:58:25;;;;;;;17.80;15.10;;;11.50;99.90;;;;;;5024722;28;20200;-67
2023/05/16 04:00:51;;;;;;;16.07;13.20;;;11.40;99.90;;;;;;5025979;28;20168;-67
2023/05/16 04:03:17;;;;;;;16.13;13.30;;;11.40;99.90;;;;;;5025194;28;20179;-69
2023/05/16 04:05:42;;;;;;;17.00;14.40;;;11.40;99.90;;;;;;5018821;28;20175;-69
2023/05/16 04:08:08;;;;;;;15.37;13.03;;;11.30;99.90;;;;;;5026064;28;20195;-68
2023/05/16 04:10:33;;;;;;;15.97;13.87;;;11.40;99.90;;;;;;5025052;28;20254;-69
2023/05/16 04:12:59;;;;;;;18.13;13.90;;;11.30;99.90;;;;;;5025792;28;20176;-69
2023/05/16 04:15:25;;;;;;;16.90;13.00;;;11.30;99.90;;;;;;5023568;28;20249;-69
2023/05/16 04:17:50;;;;;;;17.03;14.73;;;11.30;99.90;;;;;;5025274;28;20211;-68
2023/05/16 04:20:16;;;;;;;17.83;14.23;;;11.30;99.90;;;;;;5025320;28;20171;-69
2023/05/16 04:22:41;;;;;;;14.73;13.10;;;11.30;99.90;;;;;;5024572;28;20175;-68
2023/05/16 04:25:08;;;;;;;21.27;13.47;;;11.40;99.90;;;;;;5025779;28;20182;-68
2023/05/16 04:27:33;;;;;;;18.20;13.70;;;11.40;99.90;;;;;;5024710;28;20576;-68
2023/05/16 04:29:59;;;;;;;23.00;15.33;;;11.40;99.90;;;;;;5025703;28;20406;-68
2023/05/16 04:32:27;;;;;;;19.80;14.23;;;11.30;99.90;;;;;;5024159;28;20175;-68
2023/05/16 04:34:53;;;;;;;15.63;13.23;;;11.30;99.90;;;;;;5026730;28;20841;-68
2023/05/16 04:37:19;;;;;;;17.83;14.90;;;11.30;99.90;;;;;;5024636;28;20414;-68
2023/05/16 04:39:46;;;;;;;16.97;12.63;;;11.30;99.90;;;;;;5026415;28;20263;-68
2023/05/16 04:42:11;;;;;;;18.37;14.23;;;11.30;99.90;;;;;;5026105;28;20489;-68
2023/05/16 04:44:37;;;;;;;18.77;13.70;;;11.20;99.90;;;;;;5025424;28;20498;-68
2023/05/16 04:47:02;;;;;;;16.57;13.83;;;11.20;99.90;;;;;;5025933;28;20183;-69
2023/05/16 04:49:28;;;;;;;19.80;14.53;;;11.10;99.90;;;;;;5023458;28;20199;-68
2023/05/16 04:51:53;;;;;;;15.77;14.17;;;11.20;99.90;;;;;;5025606;28;20179;-69
2023/05/16 04:54:19;;;;;;;16.63;14.70;;;11.10;99.90;;;;;;5023424;28;20304;-68
2023/05/16 04:56:45;;;;;;;21.57;14.80;;;11.20;99.90;;;;;;5024900;28;20172;-68
2023/05/16 04:59:10;;;;;;;18.30;14.57;;;11.20;99.90;;;;;;5024697;28;20211;-68
2023/05/16 05:01:36;;;;;;;19.77;17.13;;;11.20;99.90;;;;;;5022562;28;20168;-67
2023/05/16 05:04:01;;;;;;;18.10;13.37;;;11.20;99.90;;;;;;5021356;28;20654;-68
2023/05/16 05:06:27;;;;;;;20.37;15.37;;;11.20;99.90;;;;;;5028536;28;20167;-69
2023/05/16 05:08:53;;;;;;;20.93;13.27;;;11.10;99.90;;;;;;5021676;28;20200;-68
2023/05/16 05:11:19;;;;;;;17.23;13.93;;;11.10;99.90;;;;;;5028258;28;20186;-68
2023/05/16 05:13:45;;;;;;;19.87;16.10;;;11.00;99.90;;;;;;5020761;28;20419;-69
2023/05/16 05:16:12;;;;;;;17.00;15.13;;;11.10;99.90;;;;;;5020865;28;20423;-69
2023/05/16 05:18:37;;;;;;;17.13;14.67;;;10.90;99.90;;;;;;5026086;28;20291;-69
2023/05/16 05:21:03;;;;;;;19.73;15.50;;;11.00;99.90;;;;;;5020887;28;20435;-68
2023/05/16 05:23:29;;;;;;;20.33;14.67;;;10.90;99.90;;;;;;5027264;28;20203;-69
2023/05/16 05:25:55;;;;;;;14.60;13.13;;;11.00;99.90;;;;;;5020590;28;20196;-68
2023/05/16 05:28:21;;;;;;;19.60;14.53;;;11.10;99.90;;;;;;5027854;28;20486;-68
2023/05/16 05:30:47;;;;;;;15.40;12.10;;;11.10;99.90;;;;;;5020697;28;20172;-69
2023/05/16 05:33:15;;;;;;;14.20;12.17;;;11.20;99.90;;;;;;5019550;28;20602;-68
2023/05/16 05:35:41;;;;;;;12.70;11.40;;;11.10;99.90;;;;;;5025770;28;20419;-69
2023/05/16 05:38:06;;;;;;;15.30;11.10;;;11.10;99.90;;;;;;5020317;28;20459;-69
2023/05/16 05:40:32;;;;;;;11.67;10.20;;;11.20;99.90;;;;;;5027406;28;20172;-69
2023/05/16 05:42:58;;;;;;;12.33;10.37;;;11.30;99.90;;;;;;5020752;28;20180;-68
2023/05/16 05:45:23;;;;;;;11.70;10.50;;;11.20;99.90;;;;;;5027686;28;20411;-68
2023/05/16 05:47:49;;;;;;;12.60;11.37;;;11.20;99.90;;;;;;5020100;28;20204;-68
2023/05/16 05:50:15;;;;;;;13.37;11.40;;;11.20;99.90;;;;;;5021071;28;20258;-66
2023/05/16 05:52:41;;;;;;;15.77;11.83;;;11.20;99.90;;;;;;5025309;28;20418;-67
2023/05/16 05:55:07;;;;;;;17.47;11.73;;;11.30;99.90;;;;;;5019957;28;20187;-68
2023/05/16 05:57:32;;;;;;;20.23;12.40;;;11.10;99.90;;;;;;5026640;28;20290;-69
2023/05/16 05:59:58;;;;;;;13.33;11.20;;;11.20;99.90;;;;;;5020242;28;20929;-67
2023/05/16 06:02:24;;;;;;;13.77;11.80;;;11.20;99.90;;;;;;5024790;28;20302;-67
2023/05/16 06:04:49;;;;;;;13.20;10.90;;;11.20;99.90;;;;;;5023493;28;20188;-68
2023/05/16 06:07:15;;;;;;;16.70;11.53;;;11.30;99.90;;;;;;5021616;28;20411;-68
2023/05/16 06:09:42;;;;;;;11.13;9.57;;;11.40;99.90;;;;;;5023937;28;20525;-68
2023/05/16 06:12:08;;;;;;;10.07;9.07;;;11.50;99.90;;;;;;5022607;28;20439;-69
2023/05/16 06:14:34;;;;;;;10.43;9.33;;;11.40;99.90;;;;;;5022931;28;20444;-64
2023/05/16 06:16:59;;;;;;;9.73;8.73;;;11.50;99.90;;;;;;5022509;28;20410;-70
2023/05/16 06:19:25;;;;;;;15.40;8.70;;;11.50;99.90;;;;;;5021635;28;20199;-68
2023/05/16 06:21:51;;;;;;;10.40;9.10;;;11.70;99.90;;;;;;5023361;28;20237;-67
2023/05/16 06:24:16;;;;;;;10.77;8.87;;;11.80;99.90;;;;;;5021327;28;20165;-68
2023/05/16 06:26:45;;;;;;;12.20;10.20;;;11.80;99.90;;;;;;5023189;28;20593;-68
2023/05/16 06:29:10;;;;;;;9.83;8.90;;;11.80;99.90;;;;;;5022852;28;20624;-68
2023/05/16 06:31:36;;;;;;;9.90;7.80;;;11.90;99.90;;;;;;5009758;28;20421;-68
2023/05/16 06:34:01;;;;;;;11.33;8.53;;;11.70;99.90;;;;;;5021907;28;20579;-68
2023/05/16 06:36:27;;;;;;;8.87;8.07;;;11.90;99.90;;;;;;5017281;28;20234;-67
2023/05/16 06:38:53;;;;;;;9.57;8.50;;;11.90;99.90;;;;;;5023299;28;20296;-67
2023/05/16 06:41:18;;;;;;;9.53;7.57;;;12.00;99.90;;;;;;5021642;28;20581;-70
2023/05/16 06:43:44;;;;;;;9.27;8.07;;;12.10;99.90;;;;;;5023208;28;20175;-68
2023/05/16 06:46:10;;;;;;;11.10;7.70;;;11.80;99.90;;;;;;5025334;28;20669;-68
2023/05/16 06:48:35;;;;;;;13.07;8.07;;;11.90;99.90;;;;;;5013357;28;20434;-68
2023/05/16 06:51:01;;;;;;;10.20;8.30;;;11.90;99.90;;;;;;5026073;28;20760;-68
2023/05/16 06:53:27;;;;;;;7.33;6.63;;;12.10;99.90;;;;;;5025553;28;20171;-70
2023/05/16 06:55:53;;;;;;;11.83;9.33;;;11.90;99.90;;;;;;5027289;28;20663;-68
2023/05/16 06:58:18;;;;;;;9.33;8.33;;;12.10;99.90;;;;;;5025539;28;20458;-68
2023/05/16 07:00:44;;;;;;;9.30;6.97;;;12.40;99.90;;;;;;5027205;28;20171;-69
2023/05/16 07:03:09;;;;;;;9.30;6.40;;;12.10;99.90;;;;;;5029545;28;20267;-67
2023/05/16 07:05:35;;;;;;;18.53;12.17;;;12.00;99.90;;;;;;5025226;28;20222;-67
2023/05/16 07:08:01;;;;;;;8.80;7.30;;;12.00;99.90;;;;;;5020092;28;20200;-67
2023/05/16 07:10:26;;;;;;;7.77;6.93;;;12.10;99.90;;;;;;5020136;28;20178;-68
2023/05/16 07:12:52;;;;;;;8.30;6.10;;;12.10;99.90;;;;;;5019827;28;20172;-68
2023/05/16 07:15:17;;;;;;;11.67;7.90;;;12.20;99.90;;;;;;5020184;28;20176;-68
2023/05/16 07:17:43;;;;;;;12.47;7.57;;;12.10;99.90;;;;;;5024216;28;20191;-68
2023/05/16 07:20:12;;;;;;;5.90;4.77;;;12.10;99.90;;;;;;5026664;28;20179;-68
2023/05/16 07:22:38;;;;;;;8.90;4.80;;;12.20;99.90;;;;;;5024299;28;20217;-68
2023/05/16 07:25:04;;;;;;;7.70;5.60;;;12.20;99.90;;;;;;5021220;28;20443;-68
2023/05/16 07:27:30;;;;;;;9.53;5.43;;;12.30;99.90;;;;;;5027071;28;20475;-69
2023/05/16 07:29:56;;;;;;;5.10;4.60;;;12.40;99.90;;;;;;5026410;28;20410;-68
2023/05/16 07:32:22;;;;;;;7.23;4.90;;;12.40;99.90;;;;;;5024670;28;20512;-69
2023/05/16 07:34:48;;;;;;;6.80;4.60;;;12.40;99.90;;;;;;5024709;28;20176;-67
2023/05/16 07:37:14;;;;;;;6.53;4.47;;;12.60;99.90;;;;;;5025531;28;20183;-68
2023/05/16 07:39:41;;;;;;;6.40;4.50;;;12.90;99.90;;;;;;5025855;28;20168;-68
2023/05/16 07:42:07;;;;;;;5.60;4.63;;;13.30;99.90;;;;;;5021238;28;20485;-67
2023/05/16 07:44:34;;;;;;;4.77;4.30;;;13.60;99.90;;;;;;5027218;28;20411;-68
2023/05/16 07:46:59;;;;;;;7.83;4.20;;;13.30;99.90;;;;;;5025935;28;20913;-67
2023/05/16 07:49:25;;;;;;;5.40;3.60;;;13.00;99.90;;;;;;5023918;28;20434;-67
2023/05/16 07:51:51;;;;;;;4.57;3.90;;;12.80;99.90;;;;;;5025917;28;20172;-69
2023/05/16 07:54:16;;;;;;;4.70;3.73;;;12.90;99.90;;;;;;5025095;28;20785;-68
2023/05/16 07:56:42;;;;;;;3.97;3.67;;;13.10;99.90;;;;;;5024988;28;20226;-69
2023/05/16 07:59:08;;;;;;;4.77;4.27;;;13.00;99.90;;;;;;5026252;28;20203;-69
2023/05/16 08:01:35;;;;;;;4.20;3.77;;;12.80;99.90;;;;;;5025857;28;20168;-68
2023/05/16 08:04:00;;;;;;;4.60;3.37;;;12.70;99.90;;;;;;5017761;28;20470;-68
2023/05/16 08:06:26;;;;;;;3.97;3.67;;;12.90;99.90;;;;;;5028731;28;20434;-68
2023/05/16 08:08:51;;;;;;;4.40;3.23;;;12.90;99.90;;;;;;5022528;28;20234;-69
2023/05/16 08:11:18;;;;;;;3.97;3.57;;;12.80;99.90;;;;;;5023574;28;20169;-68
2023/05/16 08:13:44;;;;;;;4.77;3.30;;;12.90;99.90;;;;;;5025742;28;20182;-69
2023/05/16 08:16:10;;;;;;;6.80;3.33;;;12.70;99.90;;;;;;5021115;28;20419;-69
2023/05/16 08:18:36;;;;;;;4.30;3.40;;;12.70;99.90;;;;;;5010445;28;20211;-69
2023/05/16 08:21:01;;;;;;;3.70;3.00;;;12.60;99.90;;;;;;5020889;28;20414;-68
2023/05/16 08:23:27;;;;;;;6.47;3.90;;;12.50;99.90;;;;;;5025325;28;20526;-70
2023/05/16 08:25:53;;;;;;;3.77;2.83;;;12.40;99.90;;;;;;5025421;28;20240;-70
2023/05/16 08:28:19;;;;;;;5.50;3.33;;;12.60;99.90;;;;;;5023114;28;20215;-68
2023/05/16 08:30:44;;;;;;;3.83;2.40;;;12.70;99.90;;;;;;5025393;28;20904;-69
2023/05/16 08:33:10;;;;;;;3.73;3.43;;;12.80;99.90;;;;;;5024235;28;20209;-68
2023/05/16 08:35:35;;;;;;;5.97;3.17;;;12.70;99.90;;;;;;5013245;28;20171;-68
2023/05/16 08:38:02;;;;;;;5.00;3.53;;;12.40;99.90;;;;;;5025161;28;20204;-68
2023/05/16 08:40:28;;;;;;;3.47;2.50;;;12.50;99.90;;;;;;5024700;28;20717;-68
2023/05/16 08:42:54;;;;;;;3.07;2.27;;;12.50;99.90;;;;;;5025096;28;20414;-68
2023/05/16 08:45:21;;;;;;;4.33;3.93;;;12.80;99.90;;;;;;5023042;28;20414;-69
2023/05/16 08:47:50;;;;;;;3.90;2.53;;;12.80;99.90;;;;;;5024986;28;20706;-68
2023/05/16 08:50:16;;;;;;;5.33;2.67;;;12.70;99.90;;;;;;5023560;28;20414;-70
2023/05/16 08:52:46;;;;;;;2.40;2.17;;;12.90;99.90;;;;;;5024853;28;20410;-64
2023/05/16 08:55:13;;;;;;;6.30;2.43;;;12.60;99.90;;;;;;5024611;28;20188;-68
2023/05/16 08:57:39;;;;;;;3.27;2.23;;;12.90;99.90;;;;;;5024718;28;20462;-69
2023/05/16 09:00:12;;;;;;;9.50;2.60;;;12.90;99.90;;;;;;5024295;28;20813;-70
2023/05/16 09:02:42;;;;;;;3.53;2.53;;;12.80;99.90;;;;;;5011216;28;20779;-70
2023/05/16 09:05:09;;;;;;;2.47;2.03;;;12.80;99.90;;;;;;5023380;28;20548;-70
2023/05/16 09:07:35;;;;;;;4.70;2.33;;;12.80;99.90;;;;;;5023560;28;20968;-70
2023/05/16 09:10:01;;;;;;;2.30;1.87;;;12.90;99.90;;;;;;5024844;28;20421;-69
2023/05/16 09:12:26;;;;;;;5.33;2.33;;;12.90;99.90;;;;;;5023976;28;20176;-69
2023/05/16 09:14:52;;;;;;;6.53;2.53;;;13.00;99.90;;;;;;5024667;28;20183;-70
2023/05/16 09:17:18;;;;;;;5.83;2.00;;;13.10;99.90;;;;;;5021699;28;20207;-69
2023/05/16 09:19:44;;;;;;;3.20;2.10;;;13.20;99.90;;;;;;5024888;28;20661;-70
2023/05/16 09:22:12;;;;;;;5.50;2.97;;;13.00;99.90;;;;;;5023186;28;20843;-69
2023/05/16 09:24:42;;;;;;;5.43;2.10;;;13.00;99.90;;;;;;5014810;28;20410;-70
2023/05/16 09:27:12;;;;;;;3.10;2.00;;;13.10;99.90;;;;;;5017117;28;20443;-69
2023/05/16 09:29:42;;;;;;;3.13;2.27;;;13.20;99.90;;;;;;5013843;28;20414;-70
2023/05/16 09:32:17;;;;;;;4.27;1.80;;;13.40;99.90;;;;;;5024287;28;20445;-68
2023/05/16 09:34:48;;;;;;;2.87;1.90;;;13.10;99.90;;;;;;5015917;28;20402;-71
2023/05/16 09:37:17;;;;;;;1.60;1.50;;;13.10;99.90;;;;;;5023606;28;20429;-70
2023/05/16 09:39:50;;;;;;;6.83;2.00;;;13.40;99.90;;;;;;5013533;28;20478;-69
2023/05/16 09:42:17;;;;;;;4.00;2.43;;;13.40;99.90;;;;;;5025130;28;20406;-70
2023/05/16 09:44:50;;;;;;;3.63;2.10;;;13.60;99.90;;;;;;5024702;28;20398;-69
2023/05/16 09:47:20;;;;;;;3.63;1.50;;;13.80;99.90;;;;;;5023286;28;20492;-70
2023/05/16 09:49:51;;;;;;;5.00;1.70;;;13.70;99.90;;;;;;5020439;28;20486;-70
2023/05/16 09:52:17;;;;;;;2.30;1.80;;;13.70;99.90;;;;;;5025315;28;20413;-70
2023/05/16 09:54:45;;;;;;;3.93;1.87;;;13.80;99.90;;;;;;5014541;28;20453;-68
2023/05/16 09:57:10;;;;;;;3.97;1.50;;;13.90;99.90;;;;;;5020839;28;20848;-69
2023/05/16 09:59:37;;;;;;;1.50;1.40;;;13.40;99.90;;;;;;5023180;28;20486;-69
2023/05/16 10:02:05;;;;;;;1.90;1.60;;;13.30;99.90;;;;;;5004545;28;20531;-68
2023/05/16 10:04:31;;;;;;;2.60;1.60;;;13.20;99.90;;;;;;5022189;28;20426;-68
2023/05/16 10:06:57;;;;;;;2.33;2.07;;;13.40;99.90;;;;;;5018545;28;20868;-69
2023/05/16 10:09:24;;;;;;;3.87;1.90;;;13.30;99.90;;;;;;5021311;28;20294;-69
2023/05/16 10:11:51;;;;;;;5.10;1.90;;;13.20;99.90;;;;;;5025267;28;20420;-69
2023/05/16 10:14:18;;;;;;;1.77;1.67;;;13.30;99.90;;;;;;5020633;28;20415;-68
2023/05/16 10:16:46;;;;;;;2.67;1.93;;;13.30;99.90;;;;;;5023203;28;20907;-68
2023/05/16 10:19:13;;;;;;;3.07;2.30;;;13.30;99.90;;;;;;5015842;28;20470;-69
2023/05/16 10:21:44;;;;;;;4.97;1.67;;;13.30;99.90;;;;;;5023363;28;20406;-70
2023/05/16 10:24:12;;;;;;;3.57;1.83;;;13.30;99.90;;;;;;5021828;28;20414;-68
2023/05/16 10:26:38;;;;;;;3.40;1.90;;;13.40;99.90;;;;;;5021423;28;20413;-70
2023/05/16 10:29:04;;;;;;;4.53;2.63;;;13.30;99.90;;;;;;5023062;28;20454;-69
2023/05/16 10:31:30;;;;;;;5.30;2.10;;;13.30;99.90;;;;;;5017982;28;20278;-69
2023/05/16 10:33:59;;;;;;;6.73;2.50;;;13.20;99.90;;;;;;5022940;28;20445;-67
2023/05/16 10:36:25;;;;;;;5.60;2.27;;;13.50;99.90;;;;;;5020723;28;20175;-68
2023/05/16 10:38:52;;;;;;;4.50;2.20;;;13.60;99.90;;;;;;5021501;28;20465;-69
2023/05/16 10:41:19;;;;;;;5.07;2.60;;;13.80;99.90;;;;;;5021882;28;20803;-68
2023/05/16 10:43:55;;;;;;;2.40;2.10;;;14.10;99.90;;;;;;5022829;28;20407;-68
2023/05/16 10:46:22;;;;;;;6.43;2.90;;;14.00;99.90;;;;;;5022787;28;20449;-69
2023/05/16 10:48:47;;;;;;;5.83;2.37;;;13.60;99.90;;;;;;5023739;28;20448;-68
2023/05/16 10:51:39;;;;;;;3.93;2.37;;;13.50;99.90;;;;;;5022450;28;20799;-69
2023/05/16 10:54:10;;;;;;;3.37;1.83;;;13.30;99.90;;;;;;5014257;28;20195;-70
2023/05/16 10:56:37;;;;;;;6.07;2.40;;;13.00;99.90;;;;;;5009126;28;21106;-68
2023/05/16 10:59:03;;;;;;;5.43;2.20;;;13.00;99.90;;;;;;5011923;28;20495;-70
2023/05/16 11:01:32;;;;;;;9.53;2.90;;;12.90;99.90;;;;;;5017156;28;20853;-70
2023/05/16 11:04:01;;;;;;;5.27;2.63;;;12.90;99.90;;;;;;5019021;28;20503;-68
2023/05/16 11:06:31;;;;;;;5.77;2.27;;;12.90;99.90;;;;;;5017988;28;20423;-69
2023/05/16 11:09:08;;;;;;;8.20;2.67;;;13.20;99.90;;;;;;5020598;28;20827;-68
2023/05/16 11:11:55;;;;;;;8.83;2.07;;;13.70;99.90;;;;;;5026895;28;20410;-69
2023/05/16 11:14:31;;;;;;;6.47;2.37;;;13.60;99.90;;;;;;5012238;28;20425;-69
2023/05/16 11:17:22;;;;;;;4.43;2.33;;;14.00;99.90;;;;;;5016292;28;20830;-73
2023/05/16 11:19:57;;;;;;;5.70;2.30;;;14.20;99.90;;;;;;5008190;28;20445;-68
2023/05/16 11:22:38;;;;;;;6.40;2.97;;;14.40;99.90;;;;;;5020224;28;20499;-71
2023/05/16 11:25:08;;;;;;;4.57;2.40;;;14.40;99.90;;;;;;5023039;28;20457;-69
2023/05/16 11:27:35;;;;;;;49.87;27.40;;;13.90;99.90;;;;;;5021648;28;20521;-68
2023/05/16 11:30:04;;;;;;;17.73;7.07;;;13.80;99.90;;;;;;5016134;28;20582;-68
2023/05/16 11:32:30;;;;;;;25.17;13.20;;;14.20;99.90;;;;;;5011214;28;20500;-68
2023/05/16 11:34:57;;;;;;;14.23;8.10;;;14.40;99.90;;;;;;5027301;28;20509;-68
2023/05/16 11:37:22;;;;;;;27.17;15.70;;;14.50;99.90;;;;;;5024358;28;20415;-68
2023/05/16 11:39:48;;;;;;;41.43;28.13;;;14.20;99.90;;;;;;5027158;28;20976;-67
2023/05/16 11:42:14;;;;;;;12.27;7.70;;;14.40;99.90;;;;;;5025482;28;20168;-67
2023/05/16 11:44:40;;;;;;;7.70;3.27;;;14.60;99.90;;;;;;5021939;28;20250;-67
2023/05/16 11:47:06;;;;;;;22.90;13.43;;;15.40;99.90;;;;;;5008254;28;20195;-68
2023/05/16 11:49:32;;;;;;;10.77;4.87;;;15.90;99.90;;;;;;5016120;28;20931;-67
2023/05/16 11:51:58;;;;;;;4.53;2.73;;;15.00;99.90;;;;;;5027318;28;20416;-67
2023/05/16 11:54:25;;;;;;;11.33;6.93;;;15.00;99.90;;;;;;5021772;28;20412;-68
2023/05/16 11:56:51;;;;;;;7.80;3.40;;;15.30;99.90;;;;;;5010924;28;20178;-65
2023/05/16 11:59:17;;;;;;;11.83;7.20;;;15.40;99.90;;;;;;5024673;28;20545;-67
2023/05/16 12:01:43;;;;;;;4.40;2.07;;;15.20;99.90;;;;;;5006425;28;20425;-65
2023/05/16 12:04:12;;;;;;;2.93;1.97;;;15.00;99.90;;;;;;5021699;28;20423;-67
2023/05/16 12:06:38;;;;;;;4.63;1.97;;;15.40;99.90;;;;;;5012497;28;20169;-68
2023/05/16 12:09:11;;;;;;;4.50;2.33;;;14.80;99.90;;;;;;5019840;28;20510;-68
2023/05/16 12:11:41;;;;;;;5.77;1.90;;;15.10;99.90;;;;;;5014527;28;20427;-68
2023/05/16 12:14:10;;;;;;;2.70;1.70;;;15.00;99.90;;;;;;5022197;28;20415;-67
2023/05/16 12:16:37;;;;;;;2.27;1.70;;;15.50;99.90;;;;;;5006669;28;20431;-68
2023/05/16 12:19:05;;;;;;;10.80;2.40;;;15.70;99.90;;;;;;5021858;28;20460;-67
2023/05/16 12:21:31;;;;;;;5.80;1.77;;;15.90;99.90;;;;;;5024858;28;20418;-68
2023/05/16 12:23:57;;;;;;;6.43;2.30;;;15.10;99.90;;;;;;5024949;28;20503;-68
2023/05/16 12:26:31;;;;;;;5.33;2.20;;;15.30;99.90;;;;;;5023200;28;20580;-69
2023/05/16 12:29:02;;;;;;;5.70;2.40;;;15.40;99.90;;;;;;5009232;28;20939;-68
2023/05/16 12:31:29;;;;;;;3.70;1.60;;;15.60;99.90;;;;;;5016789;28;20412;-67
2023/05/16 12:33:56;;;;;;;3.43;1.67;;;15.90;99.90;;;;;;5020628;28;20437;-68
2023/05/16 12:36:23;;;;;;;8.60;4.43;;;16.30;99.90;;;;;;5021864;28;20411;-67
2023/05/16 12:38:49;;;;;;;8.83;2.43;;;16.20;99.90;;;;;;5026622;28;20822;-69